Terminal Aerodrome Forecast
Issued by NWS

Home | Current Version | Previous Version | Text Only | Print | Product List | Glossary On
Versions: 1 2 3 4 5 6 7 8 9 10 11 12 13 14 15 16 17 18 19 20
626
FTUS41 KCAR 101135
TAFBHB
TAF
KBHB 101135Z 1012/1112 22004KT P6SM SCT035
     FM101800 23005KT P6SM BKN030
     FM110000 VRB03KT P6SM VCSH OVC020
     FM110200 VRB03KT 3SM -SHSN OVC015
     FM110700 VRB03KT 6SM -SHSN BKN025
      AMD LTD TO CLD VIS AND WIND=

USA.gov is the U.S. government's official web portal to all federal, state and local government web resources and services.